createdAt,value
2022-07-27T00:01:09.068Z,94572.94
2022-07-27T00:03:36.177Z,94567.94
2022-07-27T00:06:03.241Z,94574.31
2022-07-27T00:08:30.123Z,94568.91
2022-07-27T00:10:57.480Z,94575.19
2022-07-27T00:13:24.450Z,94574.78
2022-07-27T00:15:51.716Z,94582.94
2022-07-27T00:18:18.527Z,94571.47
2022-07-27T00:20:45.328Z,94567.16
2022-07-27T00:23:12.216Z,94575.41
2022-07-27T00:25:39.272Z,94578.81
2022-07-27T00:28:06.348Z,94590.06
2022-07-27T00:30:33.339Z,94586.53
2022-07-27T00:33:00.597Z,94583.97
2022-07-27T00:35:27.576Z,94593.00
2022-07-27T00:37:54.371Z,94593.66
2022-07-27T00:40:21.452Z,94589.97
2022-07-27T00:42:48.198Z,94598.38
2022-07-27T00:45:15.055Z,94597.28
2022-07-27T00:47:41.856Z,94603.72
2022-07-27T00:50:09.663Z,94606.06
2022-07-27T00:52:38.488Z,94602.53
2022-07-27T00:55:06.116Z,94603.69
2022-07-27T00:57:33.353Z,94608.84
2022-07-27T01:00:21.374Z,94618.09
2022-07-27T01:02:51.431Z,94626.31
2022-07-27T01:05:18.437Z,94615.53
2022-07-27T01:07:45.386Z,94620.41
2022-07-27T01:10:12.677Z,94623.13
2022-07-27T01:12:39.417Z,94620.06
2022-07-27T01:15:06.726Z,94618.56
2022-07-27T01:17:33.783Z,94603.47
2022-07-27T01:20:00.679Z,94625.97
2022-07-27T01:22:27.584Z,94621.84
2022-07-27T01:24:54.603Z,94617.22
2022-07-27T01:27:21.571Z,94617.28
2022-07-27T01:29:48.843Z,94619.19
2022-07-27T01:32:15.858Z,94619.97
2022-07-27T01:34:42.809Z,94615.84
2022-07-27T01:37:09.566Z,94629.19
2022-07-27T01:39:36.459Z,94628.97
2022-07-27T01:42:03.814Z,94617.66
2022-07-27T01:44:30.749Z,94628.81
2022-07-27T01:46:57.496Z,94622.91
2022-07-27T01:49:24.433Z,94622.63
2022-07-27T01:51:51.914Z,94618.69
2022-07-27T01:54:18.705Z,94630.25
2022-07-27T01:56:45.489Z,94617.13
2022-07-27T01:59:16.114Z,94613.78
2022-07-27T02:01:44.697Z,94631.31
2022-07-27T02:04:11.982Z,94632.41
2022-07-27T02:06:39.559Z,94635.09
2022-07-27T02:09:06.625Z,94639.78
2022-07-27T02:11:52.482Z,94629.97
2022-07-27T02:14:21.146Z,94642.59
2022-07-27T02:16:48.400Z,94649.28
2022-07-27T02:19:19.031Z,94642.78
2022-07-27T02:21:46.070Z,94641.34
2022-07-27T02:24:12.924Z,94644.59
2022-07-27T02:26:39.927Z,94650.06
2022-07-27T02:29:07.027Z,94648.53
2022-07-27T02:31:34.176Z,94647.06
2022-07-27T02:34:01.125Z,94656.50
2022-07-27T02:36:30.613Z,94648.06
2022-07-27T02:38:58.317Z,94649.41
2022-07-27T02:41:25.567Z,94645.50
2022-07-27T02:43:52.326Z,94651.66
2022-07-27T02:46:19.203Z,94655.13
2022-07-27T02:48:46.204Z,94657.25
2022-07-27T02:51:15.025Z,94656.78
2022-07-27T02:53:42.223Z,94657.59
2022-07-27T02:56:09.235Z,94653.09
2022-07-27T02:58:36.286Z,94651.44
2022-07-27T03:01:05.199Z,94660.41
2022-07-27T03:03:32.940Z,94667.22
2022-07-27T03:06:05.387Z,94660.41
2022-07-27T03:08:32.448Z,94659.59
2022-07-27T03:10:59.418Z,94662.50
2022-07-27T03:13:26.707Z,94669.34
2022-07-27T03:15:53.641Z,94662.59
2022-07-27T03:18:20.814Z,94665.22
2022-07-27T03:20:47.585Z,94665.44
2022-07-27T03:23:14.431Z,94668.34
2022-07-27T03:25:41.302Z,94673.03
2022-07-27T03:28:08.195Z,94670.81
2022-07-27T03:30:35.015Z,94680.22
2022-07-27T03:33:02.028Z,94677.31
2022-07-27T03:35:29.011Z,94675.75
2022-07-27T03:37:56.407Z,94668.91
2022-07-27T03:40:23.210Z,94671.03
2022-07-27T03:42:50.029Z,94673.28
2022-07-27T03:45:16.797Z,94660.31
2022-07-27T03:47:43.694Z,94655.59
2022-07-27T03:50:10.810Z,94675.44
2022-07-27T03:52:37.566Z,94677.53
2022-07-27T03:55:06.324Z,94677.25
2022-07-27T03:57:33.294Z,94673.50
2022-07-27T04:00:00.083Z,94684.25
2022-07-27T04:02:26.973Z,94687.91
2022-07-27T04:04:53.805Z,94686.22
2022-07-27T04:07:21.040Z,94688.78
2022-07-27T04:09:47.799Z,94688.47
2022-07-27T04:12:15.204Z,94686.19
2022-07-27T04:14:44.537Z,94685.78
2022-07-27T04:17:11.373Z,94683.56
2022-07-27T04:19:38.155Z,94686.00
2022-07-27T04:22:05.134Z,94689.56
2022-07-27T04:24:32.010Z,94693.84
2022-07-27T04:26:58.845Z,94694.97
2022-07-27T04:29:26.030Z,94698.94
2022-07-27T04:31:53.150Z,94692.34
2022-07-27T04:34:20.199Z,94699.25
2022-07-27T04:36:47.125Z,94698.91
2022-07-27T04:39:14.225Z,94699.41
2022-07-27T04:41:41.271Z,94705.41
2022-07-27T04:44:08.562Z,94703.44
2022-07-27T04:46:35.449Z,94710.47
2022-07-27T04:49:02.407Z,94710.66
2022-07-27T04:51:34.170Z,94719.84
2022-07-27T04:54:02.030Z,94723.34
2022-07-27T04:56:28.939Z,94720.59
2022-07-27T04:58:56.317Z,94733.88
2022-07-27T05:01:23.669Z,94728.28
2022-07-27T05:03:50.755Z,94728.22
2022-07-27T05:06:17.736Z,94729.84
2022-07-27T05:08:44.795Z,94736.19
2022-07-27T05:11:11.663Z,94733.00
2022-07-27T05:13:40.595Z,94739.25
2022-07-27T05:16:09.517Z,94747.94
2022-07-27T05:18:37.909Z,94749.59
2022-07-27T05:21:05.433Z,94745.25
2022-07-27T05:23:32.540Z,94747.59
2022-07-27T05:25:59.637Z,94742.47
2022-07-27T05:28:26.709Z,94741.56
2022-07-27T05:30:53.700Z,94751.94
2022-07-27T05:33:20.456Z,94750.25
2022-07-27T05:35:47.234Z,94749.50
2022-07-27T05:38:14.368Z,94741.75
2022-07-27T05:40:43.460Z,94752.91
2022-07-27T05:43:10.358Z,94751.34
2022-07-27T05:45:38.237Z,94727.25
2022-07-27T05:48:05.563Z,94748.69
2022-07-27T05:50:32.602Z,94717.69
2022-07-27T05:53:01.088Z,94755.56
2022-07-27T05:55:28.022Z,94758.88
2022-07-27T05:57:55.817Z,94754.81
2022-07-27T06:00:22.642Z,94764.06
2022-07-27T06:02:49.443Z,94761.44
2022-07-27T06:05:17.352Z,94758.81
2022-07-27T06:08:00.262Z,94767.75
2022-07-27T06:10:29.523Z,94768.38
2022-07-27T06:12:58.895Z,94768.38
2022-07-27T06:15:26.409Z,94767.00
2022-07-27T06:17:54.256Z,94766.50
2022-07-27T06:20:22.436Z,94765.72
2022-07-27T06:22:54.306Z,94766.31
2022-07-27T06:25:22.049Z,94768.63
2022-07-27T06:27:49.300Z,94765.47
2022-07-27T06:30:18.150Z,94764.19
2022-07-27T06:32:45.004Z,94760.59
2022-07-27T06:35:14.314Z,94768.75
2022-07-27T06:37:44.275Z,94759.16
2022-07-27T06:40:13.452Z,94758.75
2022-07-27T06:42:41.238Z,94763.34
2022-07-27T06:45:09.048Z,94752.72
2022-07-27T06:47:36.827Z,94760.50
2022-07-27T06:50:20.728Z,94763.25
2022-07-27T06:52:48.540Z,94754.84
2022-07-27T06:55:15.554Z,94751.34
2022-07-27T06:57:43.134Z,94758.97
2022-07-27T07:00:11.553Z,94754.81
2022-07-27T07:02:39.825Z,94751.25
2022-07-27T07:05:09.316Z,94757.28
2022-07-27T07:07:37.295Z,94751.94
2022-07-27T07:10:04.315Z,94744.91
2022-07-27T07:12:32.480Z,94745.16
2022-07-27T07:14:59.386Z,94746.09
2022-07-27T07:17:27.252Z,94737.06
2022-07-27T07:19:54.012Z,94740.91
2022-07-27T07:22:20.859Z,94743.78
2022-07-27T07:24:47.650Z,94740.31
2022-07-27T07:27:14.427Z,94736.50
2022-07-27T07:29:41.303Z,94743.75
2022-07-27T07:32:08.134Z,94743.06
2022-07-27T07:34:34.868Z,94743.53
2022-07-27T07:37:01.648Z,94745.97
2022-07-27T07:39:31.348Z,94737.88
2022-07-27T07:41:59.011Z,94739.75
2022-07-27T07:44:26.360Z,94746.00
2022-07-27T07:46:53.267Z,94741.97
2022-07-27T07:49:38.110Z,94747.25
2022-07-27T07:52:07.948Z,94753.03
2022-07-27T07:54:35.169Z,94747.56
2022-07-27T07:57:02.138Z,94749.22
2022-07-27T07:59:28.953Z,94740.97
2022-07-27T08:01:55.877Z,94752.31
2022-07-27T08:04:22.783Z,94750.63
2022-07-27T08:06:49.757Z,94749.97
2022-07-27T08:09:21.753Z,94747.22
2022-07-27T08:11:48.570Z,94748.66
2022-07-27T08:14:15.711Z,94718.28
2022-07-27T08:16:42.776Z,94743.16
2022-07-27T08:19:09.983Z,94740.88
2022-07-27T08:21:36.930Z,94735.38
2022-07-27T08:24:03.940Z,94743.56
2022-07-27T08:26:30.738Z,94729.63
2022-07-27T08:29:13.177Z,94739.41
2022-07-27T08:31:51.232Z,94728.69
2022-07-27T08:34:19.304Z,94737.31
2022-07-27T08:36:46.101Z,94734.44
2022-07-27T08:39:41.291Z,94727.44
2022-07-27T08:42:06.478Z,94739.28
2022-07-27T08:44:33.753Z,94738.38
2022-07-27T08:47:04.022Z,94734.22
2022-07-27T08:49:42.462Z,94734.75
2022-07-27T08:52:11.217Z,94725.19
2022-07-27T08:54:42.032Z,94737.19
2022-07-27T08:57:09.878Z,94730.38
2022-07-27T08:59:37.454Z,94731.56
2022-07-27T09:02:09.992Z,94722.44
2022-07-27T09:04:42.297Z,94717.88
2022-07-27T09:07:09.218Z,94721.19
2022-07-27T09:09:47.045Z,94709.72
2022-07-27T09:12:14.022Z,94718.38
2022-07-27T09:14:42.225Z,94719.75
2022-07-27T09:17:48.087Z,94712.22
2022-07-27T09:20:18.650Z,94714.91
2022-07-27T09:22:56.531Z,94707.53
2022-07-27T09:25:45.300Z,94708.28
2022-07-27T09:28:11.557Z,94717.84
2022-07-27T09:30:43.159Z,94719.53
2022-07-27T09:33:10.928Z,94710.28
2022-07-27T09:35:38.093Z,94715.78
2022-07-27T09:38:25.211Z,94705.69
2022-07-27T09:41:03.772Z,94713.06
2022-07-27T09:46:30.349Z,94709.94
2022-07-27T09:48:57.590Z,94708.91
2022-07-27T09:54:13.460Z,94709.97
2022-07-27T09:56:40.729Z,94695.00
2022-07-27T09:59:07.579Z,94687.84
2022-07-27T10:01:42.231Z,94692.97
2022-07-27T10:04:14.157Z,94696.09
2022-07-27T10:07:01.056Z,94697.34
2022-07-27T10:09:31.149Z,94688.09
2022-07-27T10:11:58.556Z,94686.53
2022-07-27T10:14:25.837Z,94686.53
2022-07-27T10:16:55.161Z,94685.75
2022-07-27T10:19:50.805Z,94678.00
2022-07-27T10:22:49.565Z,94685.72
2022-07-27T10:25:16.514Z,94671.78
2022-07-27T10:27:47.366Z,94681.88
2022-07-27T10:30:17.697Z,94676.03
2022-07-27T10:32:51.906Z,94680.19
2022-07-27T10:35:37.356Z,94683.03
2022-07-27T10:38:13.076Z,94683.69
2022-07-27T10:40:40.007Z,94684.41
2022-07-27T10:43:20.035Z,94679.19
2022-07-27T10:46:00.070Z,94676.84
2022-07-27T10:48:42.739Z,94670.66
2022-07-27T10:51:16.573Z,94679.09
2022-07-27T10:54:11.099Z,94671.44
2022-07-27T10:56:52.374Z,94655.59
2022-07-27T10:59:58.205Z,94662.97
2022-07-27T11:02:40.947Z,94654.69
2022-07-27T11:05:24.675Z,94654.22
2022-07-27T11:08:29.552Z,94661.97
2022-07-27T11:10:44.418Z,94662.78
2022-07-27T11:13:12.988Z,94656.56
2022-07-27T11:15:40.126Z,94653.44
2022-07-27T11:18:06.975Z,94647.66
2022-07-27T11:20:33.750Z,94646.81
2022-07-27T11:23:48.728Z,94645.78
2022-07-27T11:26:02.435Z,94643.13
2022-07-27T11:28:30.903Z,94651.53
2022-07-27T11:30:58.942Z,94651.03
2022-07-27T11:33:26.148Z,94644.63
2022-07-27T11:35:53.945Z,94647.44
2022-07-27T11:38:21.766Z,94654.13
2022-07-27T11:40:57.111Z,94637.19
2022-07-27T11:43:40.025Z,94643.72
2022-07-27T11:46:29.781Z,94618.75
2022-07-27T11:49:09.012Z,94637.53
2022-07-27T11:51:42.777Z,94625.19
2022-07-27T11:54:24.378Z,94628.63
2022-07-27T11:56:55.042Z,94633.34
2022-07-27T11:59:24.790Z,94627.19
2022-07-27T12:02:00.180Z,94624.56
2022-07-27T12:04:33.005Z,94625.09
2022-07-27T12:07:02.550Z,94632.38
2022-07-27T12:09:36.815Z,94626.84
2022-07-27T12:12:20.479Z,94623.00
2022-07-27T12:14:54.373Z,94614.59
2022-07-27T12:17:37.404Z,94607.22
2022-07-27T12:20:09.145Z,94601.34
2022-07-27T12:22:54.967Z,94604.50
2022-07-27T12:25:22.154Z,94605.50
2022-07-27T12:28:06.660Z,94599.03
2022-07-27T12:30:48.263Z,94598.69
2022-07-27T12:33:38.106Z,94601.56
2022-07-27T12:36:08.346Z,94611.47
2022-07-27T12:38:39.831Z,94603.56
2022-07-27T12:41:07.331Z,94586.25
2022-07-27T12:43:34.094Z,94597.63
2022-07-27T12:46:13.665Z,94596.31
2022-07-27T12:48:42.825Z,94587.44
2022-07-27T12:51:11.127Z,94600.38
2022-07-27T12:53:38.319Z,94583.34
2022-07-27T12:56:10.405Z,94583.94
2022-07-27T12:58:37.775Z,94572.16
2022-07-27T13:01:06.017Z,94581.72
2022-07-27T13:03:33.770Z,94571.41
2022-07-27T13:06:07.903Z,94574.16
2022-07-27T13:08:39.328Z,94571.66
2022-07-27T13:11:06.262Z,94565.00
2022-07-27T13:13:33.121Z,94565.72
2022-07-27T13:16:00.013Z,94577.34
2022-07-27T13:18:27.096Z,94570.34
2022-07-27T13:20:54.153Z,94571.28
2022-07-27T13:23:21.315Z,94568.00
2022-07-27T13:25:49.658Z,94552.44
2022-07-27T13:28:16.445Z,94545.97
2022-07-27T13:30:43.229Z,94548.06
2022-07-27T13:33:11.550Z,94545.22
2022-07-27T13:35:38.426Z,94540.34
2022-07-27T13:38:05.281Z,94537.91
2022-07-27T13:40:32.125Z,94539.06
2022-07-27T13:42:58.861Z,94529.41
2022-07-27T13:45:25.808Z,94529.09
2022-07-27T13:47:53.947Z,94517.72
2022-07-27T13:50:22.263Z,94521.91
2022-07-27T13:52:49.678Z,94519.50
2022-07-27T13:55:17.342Z,94505.22
2022-07-27T13:57:45.492Z,94517.66
2022-07-27T14:00:13.576Z,94517.06
2022-07-27T14:02:41.882Z,94532.38
2022-07-27T14:05:13.086Z,94525.03
2022-07-27T14:07:41.320Z,94526.81
2022-07-27T14:10:47.121Z,94526.31
2022-07-27T14:13:16.279Z,94535.03
2022-07-27T14:15:50.856Z,94527.13
2022-07-27T14:18:21.450Z,94519.94
2022-07-27T14:20:48.413Z,94520.63
2022-07-27T14:23:15.230Z,94526.56
2022-07-27T14:25:41.988Z,94527.19
2022-07-27T14:28:08.810Z,94527.88
2022-07-27T14:30:35.898Z,94519.47
2022-07-27T14:33:04.070Z,94513.81
2022-07-27T14:35:31.090Z,94518.69
2022-07-27T14:38:00.239Z,94520.31
2022-07-27T14:40:27.672Z,94523.13
2022-07-27T14:42:54.544Z,94525.41
2022-07-27T14:45:21.648Z,94526.25
2022-07-27T14:47:48.529Z,94507.63
2022-07-27T14:50:15.717Z,94514.88
2022-07-27T14:52:43.467Z,94513.50
2022-07-27T14:55:14.868Z,94517.09
2022-07-27T14:57:43.497Z,94505.31
2022-07-27T15:00:14.084Z,94501.16
2022-07-27T15:02:43.101Z,94506.59
2022-07-27T15:05:11.646Z,94504.13
2022-07-27T15:07:39.127Z,94502.31
2022-07-27T15:10:08.736Z,94512.97
2022-07-27T15:12:39.095Z,94512.06
2022-07-27T15:15:08.507Z,94503.03
2022-07-27T15:17:37.626Z,94505.53
2022-07-27T15:20:07.218Z,94500.75
2022-07-27T15:22:34.083Z,94491.25
2022-07-27T15:25:01.092Z,94498.00
2022-07-27T15:27:27.933Z,94485.94
2022-07-27T15:29:55.045Z,94488.22
2022-07-27T15:32:22.157Z,94489.97
2022-07-27T15:34:50.255Z,94480.06
2022-07-27T15:37:19.174Z,94488.63
2022-07-27T15:39:47.350Z,94478.56
2022-07-27T15:42:14.290Z,94483.22
2022-07-27T15:44:41.566Z,94480.94
2022-07-27T15:47:08.686Z,94481.00
2022-07-27T15:49:35.829Z,94485.72
2022-07-27T15:52:03.056Z,94481.94
2022-07-27T15:54:33.451Z,94482.75
2022-07-27T15:57:01.792Z,94487.44
2022-07-27T15:59:28.718Z,94485.88
2022-07-27T16:01:55.801Z,94501.31
2022-07-27T16:04:22.683Z,94489.75
2022-07-27T16:06:49.540Z,94483.53
2022-07-27T16:09:16.727Z,94491.25
2022-07-27T16:11:43.999Z,94494.72
2022-07-27T16:14:10.834Z,94492.00
2022-07-27T16:16:37.987Z,94489.66
2022-07-27T16:19:13.151Z,94489.56
2022-07-27T16:21:55.133Z,94494.88
2022-07-27T16:24:26.647Z,94489.47
2022-07-27T16:26:53.901Z,94498.31
2022-07-27T16:29:21.255Z,94494.06
2022-07-27T16:31:48.257Z,94505.63
2022-07-27T16:34:15.204Z,94497.94
2022-07-27T16:36:42.307Z,94521.47
2022-07-27T16:39:09.388Z,94518.78
2022-07-27T16:41:36.559Z,94522.56
2022-07-27T16:44:04.191Z,94537.97
2022-07-27T16:46:31.126Z,94547.97
2022-07-27T16:48:57.997Z,94541.75
2022-07-27T16:51:25.005Z,94525.56
2022-07-27T16:53:52.156Z,94539.84
2022-07-27T16:56:18.985Z,94530.44
2022-07-27T16:58:45.922Z,94543.91
2022-07-27T17:01:21.732Z,94543.44
2022-07-27T17:03:55.417Z,94563.03
2022-07-27T17:06:22.531Z,94572.19
2022-07-27T17:08:49.480Z,94569.03
2022-07-27T17:11:20.839Z,94575.06
2022-07-27T17:13:50.040Z,94580.31
2022-07-27T17:16:17.715Z,94583.34
2022-07-27T17:18:44.740Z,94549.88
2022-07-27T17:21:13.157Z,94577.56
2022-07-27T17:23:42.489Z,94573.53
2022-07-27T17:26:12.049Z,94581.66
2022-07-27T17:28:40.234Z,94586.34
2022-07-27T17:31:10.075Z,94589.63
2022-07-27T17:33:38.173Z,94588.41
2022-07-27T17:36:07.506Z,94577.56
2022-07-27T17:38:38.974Z,94572.81
2022-07-27T17:41:06.057Z,94595.34
2022-07-27T17:43:34.957Z,94597.69
2022-07-27T17:46:01.918Z,94599.38
2022-07-27T17:48:28.723Z,94607.97
2022-07-27T17:50:55.630Z,94606.69
2022-07-27T17:53:22.396Z,94607.38
2022-07-27T17:55:49.208Z,94609.72
2022-07-27T17:58:16.053Z,94614.66
2022-07-27T18:00:42.894Z,94607.59
2022-07-27T18:03:12.839Z,94607.59
2022-07-27T18:05:40.290Z,94619.72
2022-07-27T18:08:07.347Z,94629.31
2022-07-27T18:10:38.428Z,94635.25
2022-07-27T18:13:06.414Z,94613.09
2022-07-27T18:15:54.252Z,94635.44
2022-07-27T18:18:24.788Z,94633.88
2022-07-27T18:20:57.851Z,94630.59
2022-07-27T18:23:28.285Z,94633.38
2022-07-27T18:25:55.387Z,94626.09
2022-07-27T18:28:22.610Z,94627.94
2022-07-27T18:30:51.107Z,94629.56
2022-07-27T18:33:18.805Z,94628.91
2022-07-27T18:35:46.564Z,94629.56
2022-07-27T18:38:14.002Z,94628.47
2022-07-27T18:40:43.000Z,94620.25
2022-07-27T18:43:10.938Z,94626.03
2022-07-27T18:45:38.907Z,94634.50
2022-07-27T18:48:08.582Z,94622.28
2022-07-27T18:50:39.167Z,94632.53
2022-07-27T18:53:07.386Z,94636.53
2022-07-27T18:55:34.509Z,94643.88
2022-07-27T18:58:02.255Z,94638.88
2022-07-27T19:00:31.866Z,94634.50
2022-07-27T19:02:58.897Z,94648.72
2022-07-27T19:05:32.784Z,94657.19
2022-07-27T19:08:13.446Z,94666.69
2022-07-27T19:10:45.003Z,94658.00
2022-07-27T19:13:12.793Z,94661.56
2022-07-27T19:15:40.671Z,94671.31
2022-07-27T19:18:08.179Z,94674.19
2022-07-27T19:20:36.703Z,94660.81
2022-07-27T19:23:07.186Z,94673.69
2022-07-27T19:25:34.310Z,94653.81
2022-07-27T19:28:02.034Z,94678.00
2022-07-27T19:30:28.869Z,94690.59
2022-07-27T19:32:56.573Z,94696.31
2022-07-27T19:35:23.522Z,94697.31
2022-07-27T19:37:50.578Z,94694.44
2022-07-27T19:40:43.514Z,94692.91
2022-07-27T19:43:05.140Z,94685.00
2022-07-27T19:45:32.305Z,94697.22
2022-07-27T19:48:01.628Z,94690.97
2022-07-27T19:50:28.550Z,94702.25
2022-07-27T19:52:55.362Z,94699.00
2022-07-27T19:55:22.299Z,94695.09
2022-07-27T19:57:49.264Z,94705.72
2022-07-27T20:00:16.480Z,94693.53
2022-07-27T20:02:43.641Z,94699.03
2022-07-27T20:05:10.836Z,94686.56
2022-07-27T20:07:37.751Z,94699.22
2022-07-27T20:10:06.788Z,94703.31
2022-07-27T20:12:33.795Z,94708.69
2022-07-27T20:15:00.912Z,94696.03
2022-07-27T20:17:28.386Z,94715.41
2022-07-27T20:19:55.315Z,94713.41
2022-07-27T20:22:22.495Z,94697.78
2022-07-27T20:24:49.365Z,94707.94
2022-07-27T20:27:16.156Z,94705.88
2022-07-27T20:29:46.168Z,94702.78
2022-07-27T20:32:13.125Z,94685.09
2022-07-27T20:34:40.198Z,94688.69
2022-07-27T20:37:07.123Z,94695.88
2022-07-27T20:39:34.083Z,94697.47
2022-07-27T20:42:00.964Z,94703.69
2022-07-27T20:44:27.866Z,94678.72
2022-07-27T20:46:54.748Z,94696.03
2022-07-27T20:49:22.060Z,94700.06
2022-07-27T20:51:48.981Z,94694.00
2022-07-27T20:54:15.786Z,94694.28
2022-07-27T20:56:42.577Z,94699.59
2022-07-27T20:59:17.125Z,94704.31
2022-07-27T21:01:44.797Z,94700.69
2022-07-27T21:04:11.784Z,94703.69
2022-07-27T21:06:40.563Z,94708.34
2022-07-27T21:09:08.866Z,94709.91
2022-07-27T21:11:35.658Z,94711.16
2022-07-27T21:14:02.727Z,94723.03
2022-07-27T21:16:29.879Z,94717.72
2022-07-27T21:18:56.778Z,94706.50
2022-07-27T21:21:27.438Z,94715.09
2022-07-27T21:24:13.404Z,94725.88
2022-07-27T21:26:40.468Z,94725.88
2022-07-27T21:29:09.498Z,94719.31
2022-07-27T21:31:36.655Z,94697.31
2022-07-27T21:34:08.308Z,94726.50
2022-07-27T21:36:35.364Z,94732.00
2022-07-27T21:39:02.286Z,94729.19
2022-07-27T21:41:29.118Z,94734.34
2022-07-27T21:43:55.925Z,94734.66
2022-07-27T21:46:23.215Z,94733.03
2022-07-27T21:48:50.100Z,94725.84
2022-07-27T21:51:18.433Z,94718.31
2022-07-27T21:53:49.987Z,94721.44
2022-07-27T21:56:17.601Z,94732.34
2022-07-27T21:58:48.835Z,94740.09
2022-07-27T22:01:16.603Z,94747.06
2022-07-27T22:03:44.251Z,94748.13
2022-07-27T22:06:11.357Z,94751.84
2022-07-27T22:08:38.503Z,94761.69
2022-07-27T22:11:05.968Z,94768.22
2022-07-27T22:13:33.562Z,94772.09
2022-07-27T22:16:00.934Z,94781.59
2022-07-27T22:18:28.834Z,94783.44
2022-07-27T22:20:56.269Z,94777.78
2022-07-27T22:23:23.507Z,94763.47
2022-07-27T22:25:50.694Z,94777.59
2022-07-27T22:28:17.536Z,94784.56
2022-07-27T22:30:44.435Z,94783.19
2022-07-27T22:33:31.379Z,94779.94
2022-07-27T22:35:58.162Z,94790.16
2022-07-27T22:38:25.009Z,94799.78
2022-07-27T22:40:56.199Z,94801.56
2022-07-27T22:43:23.249Z,94801.56
2022-07-27T22:45:51.921Z,94801.41
2022-07-27T22:48:18.784Z,94801.03
2022-07-27T22:50:45.622Z,94792.00
2022-07-27T22:53:14.347Z,94813.16
2022-07-27T22:55:41.299Z,94816.19
2022-07-27T22:58:08.119Z,94806.69
2022-07-27T23:00:35.185Z,94813.34
2022-07-27T23:03:02.043Z,94814.91
2022-07-27T23:05:29.088Z,94798.53
2022-07-27T23:07:55.893Z,94794.91
2022-07-27T23:10:41.333Z,94815.22
2022-07-27T23:13:08.610Z,94816.84
2022-07-27T23:15:37.367Z,94816.84
2022-07-27T23:18:04.844Z,94827.94
2022-07-27T23:20:31.949Z,94846.09
2022-07-27T23:22:58.887Z,94836.31
2022-07-27T23:25:35.197Z,94850.22
2022-07-27T23:28:04.336Z,94850.78
2022-07-27T23:30:31.341Z,94864.94
2022-07-27T23:32:58.189Z,94874.91
2022-07-27T23:35:25.201Z,94886.50
2022-07-27T23:37:52.014Z,94906.50
2022-07-27T23:40:19.039Z,94916.09
2022-07-27T23:42:45.949Z,94921.00
2022-07-27T23:45:13.020Z,94915.59
2022-07-27T23:47:40.446Z,94912.38
2022-07-27T23:50:09.162Z,94911.75
2022-07-27T23:52:37.883Z,94916.47
2022-07-27T23:55:05.914Z,94907.06
2022-07-27T23:57:33.107Z,94924.50
2022-07-27T23:59:59.918Z,94898.41
